<?xml version="1.0" encoding="UTF-8" standalone="no" ?>
<gpx xmlns="http://www.topografix.com/GPX/1/1" xmlns:xsi="http://www.w3.org/2001/XMLSchema-instance" xsi:schemaLocation="http://www.topografix.com/GPX/1/1 http://www.topografix.com/GPX/1/1/gpx.xsd" version="1.1" creator="VisuGPX - https://www.visugpx.com">
  <metadata>
    <name>StNazaire_Tour_19-22km</name>
    <desc><![CDATA[gnerando idor:8373925_8827428_8835599]]></desc>
  </metadata>
  <trk>
    <name><![CDATA[StNazaire_Tour_21.5km-8827428]]></name>
    <extensions>
      <line xmlns="http://www.topografix.com/GPX/gpx_style/0/2">
        <color>00FF00</color>
        <width>4</width>
      </line>
    </extensions>
    <trkseg>
      <trkpt lat="47.27132" lon="-2.22868">
        <ele>6</ele>
        <time>2023-11-13T09:05:54Z</time>
      </trkpt>
      <trkpt lat="47.27111" lon="-2.22741">
        <ele>6</ele>
        <time>2023-11-13T09:07:52Z</time>
      </trkpt>
      <trkpt lat="47.27194" lon="-2.2271">
        <ele>6</ele>
        <time>2023-11-13T09:09:47Z</time>
      </trkpt>
      <trkpt lat="47.27329" lon="-2.22766">
        <ele>5</ele>
        <time>2023-11-13T09:12:54Z</time>
      </trkpt>
      <trkpt lat="47.27416" lon="-2.22731">
        <ele>6</ele>
        <time>2023-11-13T09:14:54Z</time>
      </trkpt>
      <trkpt lat="47.27433" lon="-2.22639">
        <ele>6</ele>
        <time>2023-11-13T09:16:20Z</time>
      </trkpt>
      <trkpt lat="47.27395" lon="-2.22583">
        <ele>6</ele>
        <time>2023-11-13T09:17:32Z</time>
      </trkpt>
      <trkpt lat="47.27357" lon="-2.22486">
        <ele>7</ele>
        <time>2023-11-13T09:19:14Z</time>
      </trkpt>
      <trkpt lat="47.27319" lon="-2.22445">
        <ele>9</ele>
        <time>2023-11-13T09:20:16Z</time>
      </trkpt>
      <trkpt lat="47.27388" lon="-2.2245">
        <ele>7</ele>
        <time>2023-11-13T09:21:49Z</time>
      </trkpt>
      <trkpt lat="47.27454" lon="-2.22603">
        <ele>7</ele>
        <time>2023-11-13T09:24:33Z</time>
      </trkpt>
      <trkpt lat="47.27499" lon="-2.22787">
        <ele>7</ele>
        <time>2023-11-13T09:27:30Z</time>
      </trkpt>
      <trkpt lat="47.27509" lon="-2.22894">
        <ele>6</ele>
        <time>2023-11-13T09:29:08Z</time>
      </trkpt>
      <trkpt lat="47.27488" lon="-2.22986">
        <ele>5</ele>
        <time>2023-11-13T09:30:36Z</time>
      </trkpt>
      <trkpt lat="47.27578" lon="-2.23011">
        <ele>4</ele>
        <time>2023-11-13T09:32:38Z</time>
      </trkpt>
      <trkpt lat="47.27693" lon="-2.22976">
        <ele>6</ele>
        <time>2023-11-13T09:35:14Z</time>
      </trkpt>
      <trkpt lat="47.27682" lon="-2.23205">
        <ele>8</ele>
        <time>2023-11-13T09:38:42Z</time>
      </trkpt>
      <trkpt lat="47.27741" lon="-2.23445">
        <ele>16</ele>
        <time>2023-11-13T09:42:33Z</time>
      </trkpt>
      <trkpt lat="47.2779" lon="-2.23859">
        <ele>24</ele>
        <time>2023-11-13T09:48:54Z</time>
      </trkpt>
      <trkpt lat="47.2788" lon="-2.24063">
        <ele>23</ele>
        <time>2023-11-13T09:52:34Z</time>
      </trkpt>
      <trkpt lat="47.279" lon="-2.24364">
        <ele>23</ele>
        <time>2023-11-13T09:57:08Z</time>
      </trkpt>
      <trkpt lat="47.28046" lon="-2.24389">
        <ele>25</ele>
        <time>2023-11-13T10:00:24Z</time>
      </trkpt>
      <trkpt lat="47.27997" lon="-2.24496">
        <ele>25</ele>
        <time>2023-11-13T10:02:21Z</time>
      </trkpt>
      <trkpt lat="47.27983" lon="-2.24726">
        <ele>25</ele>
        <time>2023-11-13T10:05:50Z</time>
      </trkpt>
      <trkpt lat="47.28004" lon="-2.24813">
        <ele>23</ele>
        <time>2023-11-13T10:07:14Z</time>
      </trkpt>
      <trkpt lat="47.28163" lon="-2.24808">
        <ele>17</ele>
        <time>2023-11-13T10:10:46Z</time>
      </trkpt>
      <trkpt lat="47.28337" lon="-2.24757">
        <ele>8</ele>
        <time>2023-11-13T10:14:43Z</time>
      </trkpt>
      <trkpt lat="47.28392" lon="-2.24818">
        <ele>5</ele>
        <time>2023-11-13T10:16:15Z</time>
      </trkpt>
      <trkpt lat="47.28413" lon="-2.25078">
        <ele>14</ele>
        <time>2023-11-13T10:20:12Z</time>
      </trkpt>
      <trkpt lat="47.28409" lon="-2.25288">
        <ele>24</ele>
        <time>2023-11-13T10:23:22Z</time>
      </trkpt>
      <trkpt lat="47.28305" lon="-2.25364">
        <ele>23</ele>
        <time>2023-11-13T10:25:57Z</time>
      </trkpt>
      <trkpt lat="47.28243" lon="-2.25369">
        <ele>19</ele>
        <time>2023-11-13T10:27:19Z</time>
      </trkpt>
      <trkpt lat="47.28129" lon="-2.25456">
        <ele>16</ele>
        <time>2023-11-13T10:30:11Z</time>
      </trkpt>
      <trkpt lat="47.28125" lon="-2.25665">
        <ele>16</ele>
        <time>2023-11-13T10:33:20Z</time>
      </trkpt>
      <trkpt lat="47.28091" lon="-2.2566">
        <ele>15</ele>
        <time>2023-11-13T10:34:06Z</time>
      </trkpt>
      <trkpt lat="47.2808" lon="-2.25466">
        <ele>14</ele>
        <time>2023-11-13T10:37:02Z</time>
      </trkpt>
      <trkpt lat="47.2808" lon="-2.25206">
        <ele>12</ele>
        <time>2023-11-13T10:40:57Z</time>
      </trkpt>
      <trkpt lat="47.27949" lon="-2.25089">
        <ele>11</ele>
        <time>2023-11-13T10:44:22Z</time>
      </trkpt>
      <trkpt lat="47.27886" lon="-2.25099">
        <ele>10</ele>
        <time>2023-11-13T10:45:46Z</time>
      </trkpt>
      <trkpt lat="47.27776" lon="-2.25032">
        <ele>12</ele>
        <time>2023-11-13T10:48:25Z</time>
      </trkpt>
      <trkpt lat="47.27644" lon="-2.25109">
        <ele>10</ele>
        <time>2023-11-13T10:51:35Z</time>
      </trkpt>
      <trkpt lat="47.27429" lon="-2.24966">
        <ele>13</ele>
        <time>2023-11-13T10:56:49Z</time>
      </trkpt>
      <trkpt lat="47.27343" lon="-2.25043">
        <ele>13</ele>
        <time>2023-11-13T10:59:04Z</time>
      </trkpt>
      <trkpt lat="47.27419" lon="-2.25231">
        <ele>17</ele>
        <time>2023-11-13T11:02:22Z</time>
      </trkpt>
      <trkpt lat="47.27461" lon="-2.25374">
        <ele>16</ele>
        <time>2023-11-13T11:04:43Z</time>
      </trkpt>
      <trkpt lat="47.2744" lon="-2.25446">
        <ele>16</ele>
        <time>2023-11-13T11:05:54Z</time>
      </trkpt>
      <trkpt lat="47.27544" lon="-2.25497">
        <ele>14</ele>
        <time>2023-11-13T11:08:20Z</time>
      </trkpt>
      <trkpt lat="47.27558" lon="-2.25614">
        <ele>16</ele>
        <time>2023-11-13T11:10:08Z</time>
      </trkpt>
      <trkpt lat="47.27658" lon="-2.25629">
        <ele>14</ele>
        <time>2023-11-13T11:12:22Z</time>
      </trkpt>
      <trkpt lat="47.27693" lon="-2.25844">
        <ele>15</ele>
        <time>2023-11-13T11:15:42Z</time>
      </trkpt>
      <trkpt lat="47.27519" lon="-2.25971">
        <ele>17</ele>
        <time>2023-11-13T11:20:01Z</time>
      </trkpt>
      <trkpt lat="47.27436" lon="-2.26099">
        <ele>19</ele>
        <time>2023-11-13T11:22:41Z</time>
      </trkpt>
      <trkpt lat="47.27339" lon="-2.26125">
        <ele>21</ele>
        <time>2023-11-13T11:24:53Z</time>
      </trkpt>
      <trkpt lat="47.27249" lon="-2.2592">
        <ele>18</ele>
        <time>2023-11-13T11:28:34Z</time>
      </trkpt>
      <trkpt lat="47.26952" lon="-2.25517">
        <ele>17</ele>
        <time>2023-11-13T11:37:33Z</time>
      </trkpt>
      <trkpt lat="47.26837" lon="-2.25441">
        <ele>19</ele>
        <time>2023-11-13T11:40:21Z</time>
      </trkpt>
      <trkpt lat="47.26796" lon="-2.25333">
        <ele>19</ele>
        <time>2023-11-13T11:42:13Z</time>
      </trkpt>
      <trkpt lat="47.26491" lon="-2.25788">
        <ele>26</ele>
        <time>2023-11-13T11:51:52Z</time>
      </trkpt>
      <trkpt lat="47.26456" lon="-2.25844">
        <ele>27</ele>
        <time>2023-11-13T11:53:01Z</time>
      </trkpt>
      <trkpt lat="47.26415" lon="-2.25737">
        <ele>25</ele>
        <time>2023-11-13T11:54:52Z</time>
      </trkpt>
      <trkpt lat="47.26307" lon="-2.25747">
        <ele>25</ele>
        <time>2023-11-13T11:57:17Z</time>
      </trkpt>
      <trkpt lat="47.262" lon="-2.25762">
        <ele>24</ele>
        <time>2023-11-13T11:59:40Z</time>
      </trkpt>
      <trkpt lat="47.26075" lon="-2.25818">
        <ele>25</ele>
        <time>2023-11-13T12:02:35Z</time>
      </trkpt>
      <trkpt lat="47.25909" lon="-2.2592">
        <ele>31</ele>
        <time>2023-11-13T12:06:35Z</time>
      </trkpt>
      <trkpt lat="47.25736" lon="-2.25941">
        <ele>36</ele>
        <time>2023-11-13T12:10:26Z</time>
      </trkpt>
      <trkpt lat="47.2566" lon="-2.25966">
        <ele>36</ele>
        <time>2023-11-13T12:12:10Z</time>
      </trkpt>
      <trkpt lat="47.25559" lon="-2.25971">
        <ele>32</ele>
        <time>2023-11-13T12:14:25Z</time>
      </trkpt>
      <trkpt lat="47.25393" lon="-2.26048">
        <ele>28</ele>
        <time>2023-11-13T12:18:17Z</time>
      </trkpt>
      <trkpt lat="47.25407" lon="-2.26318">
        <ele>35</ele>
        <time>2023-11-13T12:22:22Z</time>
      </trkpt>
      <trkpt lat="47.25459" lon="-2.26324">
        <ele>34</ele>
        <time>2023-11-13T12:23:32Z</time>
      </trkpt>
      <trkpt lat="47.25476" lon="-2.26492">
        <ele>35</ele>
        <time>2023-11-13T12:26:06Z</time>
      </trkpt>
      <trkpt lat="47.25486" lon="-2.26681">
        <ele>35</ele>
        <time>2023-11-13T12:28:58Z</time>
      </trkpt>
      <trkpt lat="47.25455" lon="-2.26747">
        <ele>36</ele>
        <time>2023-11-13T12:30:10Z</time>
      </trkpt>
      <trkpt lat="47.25286" lon="-2.26711">
        <ele>38</ele>
        <time>2023-11-13T12:33:58Z</time>
      </trkpt>
      <trkpt lat="47.2518" lon="-2.26786">
        <ele>39</ele>
        <time>2023-11-13T12:36:35Z</time>
      </trkpt>
      <trkpt lat="47.25176" lon="-2.26729">
        <ele>39</ele>
        <time>2023-11-13T12:37:27Z</time>
      </trkpt>
      <trkpt lat="47.25173" lon="-2.26643">
        <ele>38</ele>
        <time>2023-11-13T12:38:45Z</time>
      </trkpt>
      <trkpt lat="47.25161" lon="-2.26574">
        <ele>37</ele>
        <time>2023-11-13T12:39:50Z</time>
      </trkpt>
      <trkpt lat="47.25155" lon="-2.26521">
        <ele>36</ele>
        <time>2023-11-13T12:40:38Z</time>
      </trkpt>
      <trkpt lat="47.25134" lon="-2.2644">
        <ele>36</ele>
        <time>2023-11-13T12:41:57Z</time>
      </trkpt>
      <trkpt lat="47.25102" lon="-2.26416">
        <ele>34</ele>
        <time>2023-11-13T12:42:45Z</time>
      </trkpt>
      <trkpt lat="47.25077" lon="-2.2641">
        <ele>34</ele>
        <time>2023-11-13T12:43:18Z</time>
      </trkpt>
      <trkpt lat="47.25068" lon="-2.26379">
        <ele>33</ele>
        <time>2023-11-13T12:43:49Z</time>
      </trkpt>
      <trkpt lat="47.2494" lon="-2.2643">
        <ele>33</ele>
        <time>2023-11-13T12:46:46Z</time>
      </trkpt>
      <trkpt lat="47.24832" lon="-2.26466">
        <ele>34</ele>
        <time>2023-11-13T12:49:14Z</time>
      </trkpt>
      <trkpt lat="47.24842" lon="-2.26533">
        <ele>35</ele>
        <time>2023-11-13T12:50:16Z</time>
      </trkpt>
      <trkpt lat="47.24669" lon="-2.26548">
        <ele>35</ele>
        <time>2023-11-13T12:54:07Z</time>
      </trkpt>
      <trkpt lat="47.24565" lon="-2.2662">
        <ele>36</ele>
        <time>2023-11-13T12:56:40Z</time>
      </trkpt>
      <trkpt lat="47.24548" lon="-2.2666">
        <ele>36</ele>
        <time>2023-11-13T12:57:23Z</time>
      </trkpt>
      <trkpt lat="47.24437" lon="-2.26727">
        <ele>33</ele>
        <time>2023-11-13T13:00:03Z</time>
      </trkpt>
      <trkpt lat="47.2453" lon="-2.26875">
        <ele>31</ele>
        <time>2023-11-13T13:03:06Z</time>
      </trkpt>
      <trkpt lat="47.24471" lon="-2.26941">
        <ele>28</ele>
        <time>2023-11-13T13:04:45Z</time>
      </trkpt>
      <trkpt lat="47.24423" lon="-2.27018">
        <ele>26</ele>
        <time>2023-11-13T13:06:20Z</time>
      </trkpt>
      <trkpt lat="47.24381" lon="-2.27115">
        <ele>24</ele>
        <time>2023-11-13T13:08:04Z</time>
      </trkpt>
      <trkpt lat="47.24305" lon="-2.27176">
        <ele>23</ele>
        <time>2023-11-13T13:09:59Z</time>
      </trkpt>
      <trkpt lat="47.24243" lon="-2.27273">
        <ele>20</ele>
        <time>2023-11-13T13:12:00Z</time>
      </trkpt>
      <trkpt lat="47.2417" lon="-2.27329">
        <ele>18</ele>
        <time>2023-11-13T13:13:50Z</time>
      </trkpt>
      <trkpt lat="47.24087" lon="-2.27344">
        <ele>14</ele>
        <time>2023-11-13T13:15:41Z</time>
      </trkpt>
      <trkpt lat="47.24045" lon="-2.27487">
        <ele>16</ele>
        <time>2023-11-13T13:18:03Z</time>
      </trkpt>
      <trkpt lat="47.24052" lon="-2.27584">
        <ele>19</ele>
        <time>2023-11-13T13:19:31Z</time>
      </trkpt>
      <trkpt lat="47.24142" lon="-2.27691">
        <ele>16</ele>
        <time>2023-11-13T13:22:05Z</time>
      </trkpt>
      <trkpt lat="47.24115" lon="-2.27804">
        <ele>11</ele>
        <time>2023-11-13T13:23:54Z</time>
      </trkpt>
      <trkpt lat="47.2399" lon="-2.2786">
        <ele>6</ele>
        <time>2023-11-13T13:26:48Z</time>
      </trkpt>
      <trkpt lat="47.23879" lon="-2.27926">
        <ele>6</ele>
        <time>2023-11-13T13:29:28Z</time>
      </trkpt>
      <trkpt lat="47.2381" lon="-2.27992">
        <ele>6</ele>
        <time>2023-11-13T13:31:18Z</time>
      </trkpt>
      <trkpt lat="47.23778" lon="-2.27793">
        <ele>7</ele>
        <time>2023-11-13T13:34:23Z</time>
      </trkpt>
      <trkpt lat="47.23789" lon="-2.27635">
        <ele>7</ele>
        <time>2023-11-13T13:36:47Z</time>
      </trkpt>
      <trkpt lat="47.23927" lon="-2.27543">
        <ele>10</ele>
        <time>2023-11-13T13:40:09Z</time>
      </trkpt>
      <trkpt lat="47.23987" lon="-2.27438">
        <ele>9</ele>
        <time>2023-11-13T13:42:13Z</time>
      </trkpt>
      <trkpt lat="47.24011" lon="-2.27324">
        <ele>10</ele>
        <time>2023-11-13T13:44:02Z</time>
      </trkpt>
      <trkpt lat="47.24045" lon="-2.27237">
        <ele>15</ele>
        <time>2023-11-13T13:45:32Z</time>
      </trkpt>
      <trkpt lat="47.24035" lon="-2.2714">
        <ele>15</ele>
        <time>2023-11-13T13:47:01Z</time>
      </trkpt>
      <trkpt lat="47.24049" lon="-2.27023">
        <ele>14</ele>
        <time>2023-11-13T13:48:49Z</time>
      </trkpt>
      <trkpt lat="47.24004" lon="-2.26972">
        <ele>14</ele>
        <time>2023-11-13T13:50:05Z</time>
      </trkpt>
      <trkpt lat="47.23948" lon="-2.26956">
        <ele>11</ele>
        <time>2023-11-13T13:51:21Z</time>
      </trkpt>
      <trkpt lat="47.2391" lon="-2.26885">
        <ele>12</ele>
        <time>2023-11-13T13:52:43Z</time>
      </trkpt>
      <trkpt lat="47.23851" lon="-2.26854">
        <ele>4</ele>
        <time>2023-11-13T13:54:06Z</time>
      </trkpt>
      <trkpt lat="47.23889" lon="-2.26798">
        <ele>10</ele>
        <time>2023-11-13T13:55:18Z</time>
      </trkpt>
      <trkpt lat="47.23876" lon="-2.26732">
        <ele>5</ele>
        <time>2023-11-13T13:56:20Z</time>
      </trkpt>
      <trkpt lat="47.24014" lon="-2.26717">
        <ele>15</ele>
        <time>2023-11-13T13:59:25Z</time>
      </trkpt>
      <trkpt lat="47.24101" lon="-2.2663">
        <ele>20</ele>
        <time>2023-11-13T14:01:45Z</time>
      </trkpt>
      <trkpt lat="47.24101" lon="-2.26553">
        <ele>12</ele>
        <time>2023-11-13T14:02:55Z</time>
      </trkpt>
      <trkpt lat="47.2417" lon="-2.26528">
        <ele>20</ele>
        <time>2023-11-13T14:04:30Z</time>
      </trkpt>
      <trkpt lat="47.2417" lon="-2.26436">
        <ele>10</ele>
        <time>2023-11-13T14:05:53Z</time>
      </trkpt>
      <trkpt lat="47.24201" lon="-2.26415">
        <ele>15</ele>
        <time>2023-11-13T14:06:39Z</time>
      </trkpt>
      <trkpt lat="47.24167" lon="-2.26349">
        <ele>6</ele>
        <time>2023-11-13T14:07:54Z</time>
      </trkpt>
      <trkpt lat="47.24225" lon="-2.26322">
        <ele>14</ele>
        <time>2023-11-13T14:09:15Z</time>
      </trkpt>
      <trkpt lat="47.24218" lon="-2.26297">
        <ele>10</ele>
        <time>2023-11-13T14:09:40Z</time>
      </trkpt>
      <trkpt lat="47.24232" lon="-2.2629">
        <ele>11</ele>
        <time>2023-11-13T14:09:59Z</time>
      </trkpt>
      <trkpt lat="47.24258" lon="-2.26295">
        <ele>14</ele>
        <time>2023-11-13T14:10:34Z</time>
      </trkpt>
      <trkpt lat="47.24284" lon="-2.26267">
        <ele>12</ele>
        <time>2023-11-13T14:11:17Z</time>
      </trkpt>
      <trkpt lat="47.24281" lon="-2.26231">
        <ele>8</ele>
        <time>2023-11-13T14:11:50Z</time>
      </trkpt>
      <trkpt lat="47.24306" lon="-2.2622">
        <ele>8</ele>
        <time>2023-11-13T14:12:25Z</time>
      </trkpt>
      <trkpt lat="47.24324" lon="-2.26233">
        <ele>11</ele>
        <time>2023-11-13T14:12:52Z</time>
      </trkpt>
      <trkpt lat="47.24334" lon="-2.26268">
        <ele>16</ele>
        <time>2023-11-13T14:13:26Z</time>
      </trkpt>
      <trkpt lat="47.24359" lon="-2.26269">
        <ele>18</ele>
        <time>2023-11-13T14:14:00Z</time>
      </trkpt>
      <trkpt lat="47.24379" lon="-2.2627">
        <ele>19</ele>
        <time>2023-11-13T14:14:26Z</time>
      </trkpt>
      <trkpt lat="47.24399" lon="-2.26252">
        <ele>19</ele>
        <time>2023-11-13T14:14:57Z</time>
      </trkpt>
      <trkpt lat="47.24534" lon="-2.26119">
        <ele>9</ele>
        <time>2023-11-13T14:18:34Z</time>
      </trkpt>
      <trkpt lat="47.24655" lon="-2.26068">
        <ele>11</ele>
        <time>2023-11-13T14:21:22Z</time>
      </trkpt>
      <trkpt lat="47.24759" lon="-2.26048">
        <ele>14</ele>
        <time>2023-11-13T14:23:42Z</time>
      </trkpt>
      <trkpt lat="47.24794" lon="-2.25966">
        <ele>10</ele>
        <time>2023-11-13T14:25:10Z</time>
      </trkpt>
      <trkpt lat="47.24911" lon="-2.26002">
        <ele>26</ele>
        <time>2023-11-13T14:27:49Z</time>
      </trkpt>
      <trkpt lat="47.25002" lon="-2.25849">
        <ele>21</ele>
        <time>2023-11-13T14:30:54Z</time>
      </trkpt>
      <trkpt lat="47.25022" lon="-2.25721">
        <ele>13</ele>
        <time>2023-11-13T14:32:53Z</time>
      </trkpt>
      <trkpt lat="47.24995" lon="-2.25665">
        <ele>8</ele>
        <time>2023-11-13T14:33:55Z</time>
      </trkpt>
      <trkpt lat="47.25029" lon="-2.25584">
        <ele>4</ele>
        <time>2023-11-13T14:35:21Z</time>
      </trkpt>
      <trkpt lat="47.25092" lon="-2.25629">
        <ele>12</ele>
        <time>2023-11-13T14:36:55Z</time>
      </trkpt>
      <trkpt lat="47.25279" lon="-2.25354">
        <ele>10</ele>
        <time>2023-11-13T14:42:47Z</time>
      </trkpt>
      <trkpt lat="47.25351" lon="-2.25395">
        <ele>12</ele>
        <time>2023-11-13T14:44:30Z</time>
      </trkpt>
      <trkpt lat="47.25355" lon="-2.25267">
        <ele>10</ele>
        <time>2023-11-13T14:46:26Z</time>
      </trkpt>
      <trkpt lat="47.25355" lon="-2.25129">
        <ele>9</ele>
        <time>2023-11-13T14:48:31Z</time>
      </trkpt>
      <trkpt lat="47.25376" lon="-2.24961">
        <ele>10</ele>
        <time>2023-11-13T14:51:06Z</time>
      </trkpt>
      <trkpt lat="47.25445" lon="-2.24869">
        <ele>9</ele>
        <time>2023-11-13T14:53:10Z</time>
      </trkpt>
      <trkpt lat="47.25545" lon="-2.24879">
        <ele>18</ele>
        <time>2023-11-13T14:55:24Z</time>
      </trkpt>
      <trkpt lat="47.25608" lon="-2.2467">
        <ele>12</ele>
        <time>2023-11-13T14:58:51Z</time>
      </trkpt>
      <trkpt lat="47.25608" lon="-2.24384">
        <ele>11</ele>
        <time>2023-11-13T15:03:10Z</time>
      </trkpt>
      <trkpt lat="47.25649" lon="-2.24042">
        <ele>13</ele>
        <time>2023-11-13T15:08:25Z</time>
      </trkpt>
      <trkpt lat="47.25629" lon="-2.23991">
        <ele>9</ele>
        <time>2023-11-13T15:09:18Z</time>
      </trkpt>
      <trkpt lat="47.25656" lon="-2.2391">
        <ele>12</ele>
        <time>2023-11-13T15:10:40Z</time>
      </trkpt>
      <trkpt lat="47.25667" lon="-2.23598">
        <ele>8</ele>
        <time>2023-11-13T15:15:23Z</time>
      </trkpt>
      <trkpt lat="47.25604" lon="-2.23236">
        <ele>4</ele>
        <time>2023-11-13T15:21:01Z</time>
      </trkpt>
      <trkpt lat="47.25604" lon="-2.22914">
        <ele>8</ele>
        <time>2023-11-13T15:25:53Z</time>
      </trkpt>
      <trkpt lat="47.25642" lon="-2.22848">
        <ele>8</ele>
        <time>2023-11-13T15:27:11Z</time>
      </trkpt>
      <trkpt lat="47.25802" lon="-2.22777">
        <ele>8</ele>
        <time>2023-11-13T15:30:54Z</time>
      </trkpt>
      <trkpt lat="47.25854" lon="-2.22317">
        <ele>4</ele>
        <time>2023-11-13T15:37:57Z</time>
      </trkpt>
      <trkpt lat="47.26075" lon="-2.22455">
        <ele>8</ele>
        <time>2023-11-13T15:43:17Z</time>
      </trkpt>
      <trkpt lat="47.26332" lon="-2.22547">
        <ele>7</ele>
        <time>2023-11-13T15:49:10Z</time>
      </trkpt>
      <trkpt lat="47.26498" lon="-2.22547">
        <ele>5</ele>
        <time>2023-11-13T15:52:51Z</time>
      </trkpt>
      <trkpt lat="47.26581" lon="-2.22379">
        <ele>6</ele>
        <time>2023-11-13T15:55:59Z</time>
      </trkpt>
      <trkpt lat="47.26716" lon="-2.22164">
        <ele>5</ele>
        <time>2023-11-13T16:00:25Z</time>
      </trkpt>
      <trkpt lat="47.26862" lon="-2.22266">
        <ele>5</ele>
        <time>2023-11-13T16:04:00Z</time>
      </trkpt>
      <trkpt lat="47.27" lon="-2.22404">
        <ele>5</ele>
        <time>2023-11-13T16:07:43Z</time>
      </trkpt>
      <trkpt lat="47.2709" lon="-2.22578">
        <ele>9</ele>
        <time>2023-11-13T16:11:01Z</time>
      </trkpt>
      <trkpt lat="47.27132" lon="-2.22847">
        <ele>6</ele>
        <time>2023-11-13T16:15:11Z</time>
      </trkpt>
    </trkseg>
  </trk>
</gpx>